Terminal Aerodrome Forecast
Issued by NWS Wilmington, OH

Current Version | Previous Version | Graphics & Text | Print | Product List | Glossary On
Versions: 1 2 3 4 5 6 7 8 9 10 11 12 13 14 15 16 17 18 19 20 21 22
722
FTUS41 KILN 241730
TAFDAY
TAF
KDAY 241730Z 2418/2518 19022G32KT P6SM FEW045 BKN200
     FM250100 19014G22KT 6SM -SHRA VCTS OVC040CB
      TEMPO 2501/2504 4SM TSRA OVC025CB
     FM250600 27015G25KT P6SM VCSH BKN045
     FM250800 27015G25KT P6SM BKN045
     FM251200 25016G26KT P6SM OVC025=

USA.gov is the U.S. government's official web portal to all federal, state and local government web resources and services.